sensor_id;sensor_type;location;lat;lon;timestamp;pressure;altitude;pressure_sealevel;temperature;humidity
75747;BME280;64363;52.198;21.020;2023-02-28T00:01:22;101930.44;;;-1.82;66.08
75747;BME280;64363;52.198;21.020;2023-02-28T00:03:48;101929.59;;;-1.81;66.18
75747;BME280;64363;52.198;21.020;2023-02-28T00:06:14;101934.00;;;-1.80;67.23
75747;BME280;64363;52.198;21.020;2023-02-28T00:08:40;101931.94;;;-1.88;65.18
75747;BME280;64363;52.198;21.020;2023-02-28T00:11:12;101931.91;;;-1.89;65.69
75747;BME280;64363;52.198;21.020;2023-02-28T00:13:43;101932.50;;;-1.95;65.39
75747;BME280;64363;52.198;21.020;2023-02-28T00:16:15;101936.84;;;-1.95;67.40
75747;BME280;64363;52.198;21.020;2023-02-28T00:18:41;101933.53;;;-1.91;68.04
75747;BME280;64363;52.198;21.020;2023-02-28T00:21:07;101938.97;;;-1.86;67.99
75747;BME280;64363;52.198;21.020;2023-02-28T00:23:33;101938.69;;;-1.93;66.36
75747;BME280;64363;52.198;21.020;2023-02-28T00:25:59;101949.91;;;-1.95;67.15
75747;BME280;64363;52.198;21.020;2023-02-28T00:28:25;101946.41;;;-1.96;66.54
75747;BME280;64363;52.198;21.020;2023-02-28T00:30:51;101952.53;;;-1.95;68.24
75747;BME280;64363;52.198;21.020;2023-02-28T00:33:17;101942.97;;;-1.95;68.16
75747;BME280;64363;52.198;21.020;2023-02-28T00:35:43;101931.22;;;-2.04;67.73
75747;BME280;64363;52.198;21.020;2023-02-28T00:38:12;101946.16;;;-2.02;67.49
75747;BME280;64363;52.198;21.020;2023-02-28T00:40:38;101945.16;;;-2.04;66.31
75747;BME280;64363;52.198;21.020;2023-02-28T00:43:03;101951.97;;;-2.07;66.86
75747;BME280;64363;52.198;21.020;2023-02-28T00:45:30;101947.66;;;-2.07;68.57
75747;BME280;64363;52.198;21.020;2023-02-28T00:47:55;101944.28;;;-2.04;68.71
75747;BME280;64363;52.198;21.020;2023-02-28T00:50:21;101939.81;;;-2.07;67.12
75747;BME280;64363;52.198;21.020;2023-02-28T00:52:47;101954.38;;;-2.12;66.65
75747;BME280;64363;52.198;21.020;2023-02-28T00:55:13;101944.63;;;-2.16;67.83
75747;BME280;64363;52.198;21.020;2023-02-28T00:57:39;101942.16;;;-2.13;68.24
75747;BME280;64363;52.198;21.020;2023-02-28T01:00:06;101945.72;;;-2.11;69.40
75747;BME280;64363;52.198;21.020;2023-02-28T01:02:32;101949.31;;;-2.09;68.12
75747;BME280;64363;52.198;21.020;2023-02-28T01:04:58;101941.66;;;-2.04;68.68
75747;BME280;64363;52.198;21.020;2023-02-28T01:07:23;101942.44;;;-2.07;68.59
75747;BME280;64363;52.198;21.020;2023-02-28T01:09:49;101949.56;;;-2.03;69.27
75747;BME280;64363;52.198;21.020;2023-02-28T01:12:15;101933.69;;;-2.07;68.23
75747;BME280;64363;52.198;21.020;2023-02-28T01:14:41;101937.97;;;-2.09;67.97
75747;BME280;64363;52.198;21.020;2023-02-28T01:17:07;101945.72;;;-2.11;68.15
75747;BME280;64363;52.198;21.020;2023-02-28T01:19:33;101945.59;;;-2.14;67.36
75747;BME280;64363;52.198;21.020;2023-02-28T01:22:05;101939.28;;;-2.19;68.02
75747;BME280;64363;52.198;21.020;2023-02-28T01:24:33;101940.94;;;-2.21;67.75
75747;BME280;64363;52.198;21.020;2023-02-28T01:26:59;101943.69;;;-2.18;69.82
75747;BME280;64363;52.198;21.020;2023-02-28T01:29:25;101935.75;;;-2.19;69.24
75747;BME280;64363;52.198;21.020;2023-02-28T01:31:50;101937.44;;;-2.21;68.81
75747;BME280;64363;52.198;21.020;2023-02-28T01:34:16;101945.31;;;-2.20;69.36
75747;BME280;64363;52.198;21.020;2023-02-28T01:36:44;101942.78;;;-2.18;70.31
75747;BME280;64363;52.198;21.020;2023-02-28T01:39:11;101948.00;;;-2.18;69.30
75747;BME280;64363;52.198;21.020;2023-02-28T01:41:38;101943.38;;;-2.24;68.67
75747;BME280;64363;52.198;21.020;2023-02-28T01:47:10;101951.44;;;-2.19;70.47
75747;BME280;64363;52.198;21.020;2023-02-28T01:49:36;101948.69;;;-2.22;69.76
75747;BME280;64363;52.198;21.020;2023-02-28T01:52:02;101953.84;;;-2.24;68.83
75747;BME280;64363;52.198;21.020;2023-02-28T01:54:31;101957.31;;;-2.25;69.33
75747;BME280;64363;52.198;21.020;2023-02-28T01:57:04;101950.53;;;-2.20;69.96
75747;BME280;64363;52.198;21.020;2023-02-28T01:59:48;101954.94;;;-2.19;70.26
75747;BME280;64363;52.198;21.020;2023-02-28T02:02:17;101952.94;;;-2.24;69.98
75747;BME280;64363;52.198;21.020;2023-02-28T02:04:53;101946.16;;;-2.21;70.61
75747;BME280;64363;52.198;21.020;2023-02-28T02:07:20;101947.88;;;-2.21;70.19
75747;BME280;64363;52.198;21.020;2023-02-28T02:09:47;101940.78;;;-2.24;71.05
75747;BME280;64363;52.198;21.020;2023-02-28T02:21:16;101949.47;;;-2.25;71.42
75747;BME280;64363;52.198;21.020;2023-02-28T02:39:53;101949.38;;;-2.26;69.80
75747;BME280;64363;52.198;21.020;2023-02-28T02:45:03;101948.47;;;-2.27;70.15
75747;BME280;64363;52.198;21.020;2023-02-28T02:47:33;101947.31;;;-2.33;71.02
75747;BME280;64363;52.198;21.020;2023-02-28T02:50:02;101949.25;;;-2.29;70.66
75747;BME280;64363;52.198;21.020;2023-02-28T02:52:36;101950.75;;;-2.34;70.57
75747;BME280;64363;52.198;21.020;2023-02-28T02:55:06;101956.06;;;-2.33;70.22
75747;BME280;64363;52.198;21.020;2023-02-28T02:57:54;101952.59;;;-2.32;71.56
75747;BME280;64363;52.198;21.020;2023-02-28T03:00:27;101966.50;;;-2.33;70.68
75747;BME280;64363;52.198;21.020;2023-02-28T03:02:56;101959.53;;;-2.32;70.93
75747;BME280;64363;52.198;21.020;2023-02-28T03:05:29;101961.19;;;-2.34;70.18
75747;BME280;64363;52.198;21.020;2023-02-28T03:07:56;101961.06;;;-2.38;69.75
75747;BME280;64363;52.198;21.020;2023-02-28T03:13:14;101960.84;;;-2.42;69.87
75747;BME280;64363;52.198;21.020;2023-02-28T03:18:42;101968.06;;;-2.37;71.59
75747;BME280;64363;52.198;21.020;2023-02-28T03:21:14;101959.34;;;-2.37;71.47
75747;BME280;64363;52.198;21.020;2023-02-28T03:24:17;101963.72;;;-2.36;71.07
75747;BME280;64363;52.198;21.020;2023-02-28T03:26:50;101956.75;;;-2.37;71.99
75747;BME280;64363;52.198;21.020;2023-02-28T03:29:36;101960.97;;;-2.39;70.87
75747;BME280;64363;52.198;21.020;2023-02-28T03:32:13;101959.97;;;-2.43;69.93
75747;BME280;64363;52.198;21.020;2023-02-28T03:34:49;101965.94;;;-2.45;70.04
75747;BME280;64363;52.198;21.020;2023-02-28T03:37:22;101962.44;;;-2.46;72.24
75747;BME280;64363;52.198;21.020;2023-02-28T03:40:04;101963.47;;;-2.42;72.96
75747;BME280;64363;52.198;21.020;2023-02-28T03:42:34;101961.81;;;-2.40;72.40
75747;BME280;64363;52.198;21.020;2023-02-28T03:45:10;101966.88;;;-2.43;72.95
75747;BME280;64363;52.198;21.020;2023-02-28T03:47:49;101968.69;;;-2.42;73.04
75747;BME280;64363;52.198;21.020;2023-02-28T03:50:24;101966.88;;;-2.43;72.54
75747;BME280;64363;52.198;21.020;2023-02-28T03:52:56;101974.38;;;-2.51;71.79
75747;BME280;64363;52.198;21.020;2023-02-28T03:55:32;101979.59;;;-2.51;72.57
75747;BME280;64363;52.198;21.020;2023-02-28T03:58:27;101984.72;;;-2.52;72.46
75747;BME280;64363;52.198;21.020;2023-02-28T04:01:00;101973.03;;;-2.60;72.91
75747;BME280;64363;52.198;21.020;2023-02-28T04:03:35;101980.38;;;-2.53;73.42
75747;BME280;64363;52.198;21.020;2023-02-28T04:06:01;101978.56;;;-2.54;73.32
75747;BME280;64363;52.198;21.020;2023-02-28T04:08:27;101976.91;;;-2.52;73.33
75747;BME280;64363;52.198;21.020;2023-02-28T04:10:59;101978.56;;;-2.54;72.77
75747;BME280;64363;52.198;21.020;2023-02-28T04:13:26;101972.56;;;-2.52;72.45
75747;BME280;64363;52.198;21.020;2023-02-28T04:15:52;101975.19;;;-2.52;72.84
75747;BME280;64363;52.198;21.020;2023-02-28T04:18:17;101971.69;;;-2.52;73.43
75747;BME280;64363;52.198;21.020;2023-02-28T04:20:43;101979.47;;;-2.54;73.02
75747;BME280;64363;52.198;21.020;2023-02-28T04:23:09;101976.84;;;-2.54;72.91
75747;BME280;64363;52.198;21.020;2023-02-28T04:25:35;101984.47;;;-2.58;72.86
75747;BME280;64363;52.198;21.020;2023-02-28T04:28:00;101981.50;;;-2.66;72.15
75747;BME280;64363;52.198;21.020;2023-02-28T04:30:26;101983.00;;;-2.71;72.44
75747;BME280;64363;52.198;21.020;2023-02-28T04:32:52;101985.81;;;-2.66;73.28
75747;BME280;64363;52.198;21.020;2023-02-28T04:35:18;101979.63;;;-2.68;73.17
75747;BME280;64363;52.198;21.020;2023-02-28T04:37:43;101981.28;;;-2.70;73.31
75747;BME280;64363;52.198;21.020;2023-02-28T04:40:09;101988.44;;;-2.66;74.18
75747;BME280;64363;52.198;21.020;2023-02-28T04:42:35;101984.25;;;-2.63;73.35
75747;BME280;64363;52.198;21.020;2023-02-28T04:45:02;101983.47;;;-2.60;73.33
75747;BME280;64363;52.198;21.020;2023-02-28T04:47:28;101985.16;;;-2.62;73.24
75747;BME280;64363;52.198;21.020;2023-02-28T04:49:54;101986.63;;;-2.67;73.43
75747;BME280;64363;52.198;21.020;2023-02-28T04:52:20;101983.88;;;-2.70;74.59
75747;BME280;64363;52.198;21.020;2023-02-28T04:54:45;101974.13;;;-2.74;73.06
75747;BME280;64363;52.198;21.020;2023-02-28T04:57:11;101982.75;;;-2.75;73.28
75747;BME280;64363;52.198;21.020;2023-02-28T04:59:37;101994.19;;;-2.73;74.31
75747;BME280;64363;52.198;21.020;2023-02-28T05:02:03;101980.91;;;-2.78;73.94
75747;BME280;64363;52.198;21.020;2023-02-28T05:04:35;101985.25;;;-2.78;72.42
75747;BME280;64363;52.198;21.020;2023-02-28T05:07:02;101995.75;;;-2.77;73.38
75747;BME280;64363;52.198;21.020;2023-02-28T05:09:29;101999.31;;;-2.75;74.08
75747;BME280;64363;52.198;21.020;2023-02-28T05:11:55;101994.03;;;-2.76;74.03
75747;BME280;64363;52.198;21.020;2023-02-28T05:14:21;102003.78;;;-2.72;72.95
75747;BME280;64363;52.198;21.020;2023-02-28T05:16:47;102000.09;;;-2.77;73.61
75747;BME280;64363;52.198;21.020;2023-02-28T05:19:12;102004.53;;;-2.75;73.27
75747;BME280;64363;52.198;21.020;2023-02-28T05:21:49;102013.06;;;-2.79;73.57
75747;BME280;64363;52.198;21.020;2023-02-28T05:24:16;102012.00;;;-2.83;73.22
75747;BME280;64363;52.198;21.020;2023-02-28T05:26:49;102020.50;;;-2.87;73.44
75747;BME280;64363;52.198;21.020;2023-02-28T05:29:16;102023.22;;;-2.85;73.45
75747;BME280;64363;52.198;21.020;2023-02-28T05:31:41;102028.63;;;-2.80;73.16
75747;BME280;64363;52.198;21.020;2023-02-28T05:34:08;102025.16;;;-2.81;72.94
75747;BME280;64363;52.198;21.020;2023-02-28T05:36:37;102019.69;;;-2.86;73.20
75747;BME280;64363;52.198;21.020;2023-02-28T05:39:05;102026.84;;;-2.81;73.48
75747;BME280;64363;52.198;21.020;2023-02-28T05:41:30;102032.44;;;-2.74;74.03
75747;BME280;64363;52.198;21.020;2023-02-28T05:43:57;102028.19;;;-2.72;72.69
75747;BME280;64363;52.198;21.020;2023-02-28T05:46:24;102027.38;;;-2.71;72.82
75747;BME280;64363;52.198;21.020;2023-02-28T05:48:51;102037.00;;;-2.70;73.51
75747;BME280;64363;52.198;21.020;2023-02-28T05:51:16;102036.09;;;-2.70;72.89
75747;BME280;64363;52.198;21.020;2023-02-28T05:53:43;102045.09;;;-2.64;74.37
75747;BME280;64363;52.198;21.020;2023-02-28T05:56:09;102041.75;;;-2.61;73.45
75747;BME280;64363;52.198;21.020;2023-02-28T05:58:35;102043.63;;;-2.59;73.65
75747;BME280;64363;52.198;21.020;2023-02-28T06:03:48;102045.63;;;-2.53;74.05
75747;BME280;64363;52.198;21.020;2023-02-28T06:06:14;102041.28;;;-2.53;73.87
75747;BME280;64363;52.198;21.020;2023-02-28T06:08:40;102050.19;;;-2.49;73.73
75747;BME280;64363;52.198;21.020;2023-02-28T06:11:05;102047.63;;;-2.48;73.47
75747;BME280;64363;52.198;21.020;2023-02-28T06:13:32;102056.50;;;-2.44;73.33
75747;BME280;64363;52.198;21.020;2023-02-28T06:16:00;102052.38;;;-2.39;73.67
75747;BME280;64363;52.198;21.020;2023-02-28T06:18:26;102054.25;;;-2.37;73.14
75747;BME280;64363;52.198;21.020;2023-02-28T06:20:53;102062.28;;;-2.32;72.40
75747;BME280;64363;52.198;21.020;2023-02-28T06:23:22;102058.06;;;-2.30;72.58
75747;BME280;64363;52.198;21.020;2023-02-28T06:25:48;102054.91;;;-2.23;71.29
75747;BME280;64363;52.198;21.020;2023-02-28T06:28:15;102055.03;;;-2.20;70.68
75747;BME280;64363;52.198;21.020;2023-02-28T06:30:40;102053.44;;;-2.16;70.84
75747;BME280;64363;52.198;21.020;2023-02-28T06:33:06;102061.47;;;-2.13;69.90
75747;BME280;64363;52.198;21.020;2023-02-28T06:35:32;102052.72;;;-2.14;70.10
75747;BME280;64363;52.198;21.020;2023-02-28T06:37:58;102058.31;;;-2.06;69.83
75747;BME280;64363;52.198;21.020;2023-02-28T06:40:23;102049.78;;;-2.02;69.58
75747;BME280;64363;52.198;21.020;2023-02-28T06:42:49;102044.06;;;-1.94;69.95
75747;BME280;64363;52.198;21.020;2023-02-28T06:45:15;102034.78;;;-1.87;69.38
75747;BME280;64363;52.198;21.020;2023-02-28T06:47:41;102042.84;;;-1.82;69.53
75747;BME280;64363;52.198;21.020;2023-02-28T06:50:11;102032.38;;;-1.82;69.49
75747;BME280;64363;52.198;21.020;2023-02-28T06:52:38;102033.50;;;-1.77;69.92
75747;BME280;64363;52.198;21.020;2023-02-28T06:55:05;102027.41;;;-1.76;69.60
75747;BME280;64363;52.198;21.020;2023-02-28T06:57:33;102031.34;;;-1.67;70.24
75747;BME280;64363;52.198;21.020;2023-02-28T07:00:04;102026.38;;;-1.61;69.32
75747;BME280;64363;52.198;21.020;2023-02-28T07:02:30;102024.78;;;-1.57;69.00
75747;BME280;64363;52.198;21.020;2023-02-28T07:04:57;102023.13;;;-1.55;69.22
75747;BME280;64363;52.198;21.020;2023-02-28T07:07:22;102017.41;;;-1.47;69.31
75747;BME280;64363;52.198;21.020;2023-02-28T07:09:48;102021.84;;;-1.44;68.38
75747;BME280;64363;52.198;21.020;2023-02-28T07:12:14;102022.38;;;-1.32;68.09
75747;BME280;64363;52.198;21.020;2023-02-28T07:14:39;102022.78;;;-1.23;67.68
75747;BME280;64363;52.198;21.020;2023-02-28T07:17:10;102024.19;;;-1.10;67.37
75747;BME280;64363;52.198;21.020;2023-02-28T07:19:38;102021.66;;;-1.09;66.96
75747;BME280;64363;52.198;21.020;2023-02-28T07:22:04;102021.06;;;-1.02;66.33
75747;BME280;64363;52.198;21.020;2023-02-28T07:24:30;102019.59;;;-0.95;65.96
75747;BME280;64363;52.198;21.020;2023-02-28T07:26:56;102020.78;;;-0.87;65.65
75747;BME280;64363;52.198;21.020;2023-02-28T07:29:22;102034.06;;;-0.82;65.32
75747;BME280;64363;52.198;21.020;2023-02-28T07:31:48;102020.34;;;-0.77;64.57
75747;BME280;64363;52.198;21.020;2023-02-28T07:34:15;102019.88;;;-0.67;64.33
75747;BME280;64363;52.198;21.020;2023-02-28T07:36:41;102017.31;;;-0.65;64.79
75747;BME280;64363;52.198;21.020;2023-02-28T07:39:07;102020.28;;;-0.56;63.92
75747;BME280;64363;52.198;21.020;2023-02-28T07:41:36;102016.25;;;-0.48;62.61
75747;BME280;64363;52.198;21.020;2023-02-28T07:44:10;102012.91;;;-0.44;62.97
75747;BME280;64363;52.198;21.020;2023-02-28T07:46:36;102024.53;;;-0.37;63.12
75747;BME280;64363;52.198;21.020;2023-02-28T07:49:03;102019.84;;;-0.46;60.26
75747;BME280;64363;52.198;21.020;2023-02-28T07:51:30;102019.34;;;-0.36;60.42
75747;BME280;64363;52.198;21.020;2023-02-28T07:54:03;102014.16;;;-0.34;60.10
75747;BME280;64363;52.198;21.020;2023-02-28T07:56:29;102020.59;;;-0.26;60.45
75747;BME280;64363;52.198;21.020;2023-02-28T07:58:55;102022.38;;;-0.25;59.17
75747;BME280;64363;52.198;21.020;2023-02-28T08:01:21;102021.06;;;-0.14;58.96
75747;BME280;64363;52.198;21.020;2023-02-28T08:03:47;102017.63;;;-0.13;58.18
75747;BME280;64363;52.198;21.020;2023-02-28T08:06:19;102020.34;;;-0.10;58.50
75747;BME280;64363;52.198;21.020;2023-02-28T08:08:45;102022.31;;;-0.05;56.39
75747;BME280;64363;52.198;21.020;2023-02-28T08:11:12;102024.22;;;-0.01;55.68
75747;BME280;64363;52.198;21.020;2023-02-28T08:13:37;102025.41;;;0.08;56.59
75747;BME280;64363;52.198;21.020;2023-02-28T08:16:03;102019.44;;;0.12;56.33
75747;BME280;64363;52.198;21.020;2023-02-28T08:18:29;102024.09;;;0.20;57.20
75747;BME280;64363;52.198;21.020;2023-02-28T08:20:55;102022.38;;;0.21;57.32
75747;BME280;64363;52.198;21.020;2023-02-28T08:23:22;102018.63;;;0.14;56.77
75747;BME280;64363;52.198;21.020;2023-02-28T08:25:55;102012.16;;;0.28;57.03
75747;BME280;64363;52.198;21.020;2023-02-28T08:28:22;102011.38;;;0.31;56.44
75747;BME280;64363;52.198;21.020;2023-02-28T08:30:48;102010.84;;;0.41;56.51
75747;BME280;64363;52.198;21.020;2023-02-28T08:33:14;102012.03;;;0.49;56.55
75747;BME280;64363;52.198;21.020;2023-02-28T08:35:40;102015.72;;;0.54;57.25
75747;BME280;64363;52.198;21.020;2023-02-28T08:38:05;102008.91;;;0.59;56.52
75747;BME280;64363;52.198;21.020;2023-02-28T08:40:31;102014.34;;;0.65;55.68
75747;BME280;64363;52.198;21.020;2023-02-28T08:42:57;102020.31;;;0.61;55.48
75747;BME280;64363;52.198;21.020;2023-02-28T08:45:24;102007.03;;;0.57;54.26
75747;BME280;64363;52.198;21.020;2023-02-28T08:47:49;102016.63;;;0.31;54.43
75747;BME280;64363;52.198;21.020;2023-02-28T08:50:18;102022.81;;;0.33;54.92
75747;BME280;64363;52.198;21.020;2023-02-28T08:52:43;102024.94;;;0.43;55.17
75747;BME280;64363;52.198;21.020;2023-02-28T08:55:10;102023.69;;;0.57;55.17
75747;BME280;64363;52.198;21.020;2023-02-28T08:57:35;102020.13;;;0.55;54.85
75747;BME280;64363;52.198;21.020;2023-02-28T09:00:03;102016.22;;;0.69;55.21
75747;BME280;64363;52.198;21.020;2023-02-28T09:02:32;102022.31;;;0.68;53.75
75747;BME280;64363;52.198;21.020;2023-02-28T09:04:58;102016.75;;;0.84;54.49
75747;BME280;64363;52.198;21.020;2023-02-28T09:07:25;102020.97;;;0.79;53.83
75747;BME280;64363;52.198;21.020;2023-02-28T09:09:51;102023.06;;;0.89;52.89
75747;BME280;64363;52.198;21.020;2023-02-28T09:12:24;102017.16;;;0.97;54.23
75747;BME280;64363;52.198;21.020;2023-02-28T09:14:50;102020.94;;;1.05;54.36
75747;BME280;64363;52.198;21.020;2023-02-28T09:17:16;102020.34;;;1.13;54.28
75747;BME280;64363;52.198;21.020;2023-02-28T09:19:42;102028.59;;;1.24;53.87
75747;BME280;64363;52.198;21.020;2023-02-28T09:22:09;102026.81;;;1.23;53.84
75747;BME280;64363;52.198;21.020;2023-02-28T09:24:36;102032.75;;;1.17;53.06
75747;BME280;64363;52.198;21.020;2023-02-28T09:27:02;102028.69;;;1.27;54.72
75747;BME280;64363;52.198;21.020;2023-02-28T09:29:28;102031.25;;;1.25;53.02
75747;BME280;64363;52.198;21.020;2023-02-28T09:31:54;102031.84;;;1.17;52.21
75747;BME280;64363;52.198;21.020;2023-02-28T09:34:20;102037.97;;;1.16;52.17
75747;BME280;64363;52.198;21.020;2023-02-28T09:36:45;102035.22;;;1.13;52.63
75747;BME280;64363;52.198;21.020;2023-02-28T09:39:12;102032.56;;;1.11;52.75
75747;BME280;64363;52.198;21.020;2023-02-28T09:41:45;102035.34;;;1.16;52.43
75747;BME280;64363;52.198;21.020;2023-02-28T09:46:48;102024.28;;;1.26;52.33
75747;BME280;64363;52.198;21.020;2023-02-28T09:49:23;102018.28;;;1.30;52.54
75747;BME280;64363;52.198;21.020;2023-02-28T09:51:56;102025.06;;;1.50;52.70
75747;BME280;64363;52.198;21.020;2023-02-28T09:54:30;102028.75;;;1.57;51.74
75747;BME280;64363;52.198;21.020;2023-02-28T09:57:00;102030.00;;;1.39;50.94
75747;BME280;64363;52.198;21.020;2023-02-28T10:05:08;102021.59;;;1.51;51.52
75747;BME280;64363;52.198;21.020;2023-02-28T10:10:40;102030.75;;;1.92;50.05
75747;BME280;64363;52.198;21.020;2023-02-28T10:13:15;102028.81;;;1.86;50.41
75747;BME280;64363;52.198;21.020;2023-02-28T10:15:45;102031.81;;;1.99;50.22
75747;BME280;64363;52.198;21.020;2023-02-28T10:18:15;102024.78;;;2.29;48.52
75747;BME280;64363;52.198;21.020;2023-02-28T10:20:43;102022.06;;;2.57;48.08
75747;BME280;64363;52.198;21.020;2023-02-28T10:23:17;102022.47;;;3.05;47.13
75747;BME280;64363;52.198;21.020;2023-02-28T10:25:45;102015.66;;;3.88;45.50
75747;BME280;64363;52.198;21.020;2023-02-28T10:28:15;102006.34;;;4.97;43.63
75747;BME280;64363;52.198;21.020;2023-02-28T10:30:45;102008.91;;;6.06;40.17
75747;BME280;64363;52.198;21.020;2023-02-28T10:33:22;102013.16;;;5.94;39.91
75747;BME280;64363;52.198;21.020;2023-02-28T10:35:49;102017.34;;;5.21;41.02
75747;BME280;64363;52.198;21.020;2023-02-28T10:38:18;102012.63;;;5.03;42.49
75747;BME280;64363;52.198;21.020;2023-02-28T10:40:45;102007.09;;;4.43;42.60
75747;BME280;64363;52.198;21.020;2023-02-28T10:45:53;101998.44;;;4.07;44.61
75747;BME280;64363;52.198;21.020;2023-02-28T10:58:31;102004.38;;;3.19;46.81
75747;BME280;64363;52.198;21.020;2023-02-28T11:00:58;101997.97;;;3.09;47.09
75747;BME280;64363;52.198;21.020;2023-02-28T11:03:25;101987.59;;;3.15;46.91
75747;BME280;64363;52.198;21.020;2023-02-28T11:05:54;101988.69;;;3.25;47.29
75747;BME280;64363;52.198;21.020;2023-02-28T11:08:20;101988.56;;;3.19;46.98
75747;BME280;64363;52.198;21.020;2023-02-28T11:10:48;101983.94;;;3.10;47.39
75747;BME280;64363;52.198;21.020;2023-02-28T11:13:26;101987.00;;;3.27;47.13
75747;BME280;64363;52.198;21.020;2023-02-28T11:15:55;101974.38;;;3.14;46.68
75747;BME280;64363;52.198;21.020;2023-02-28T11:21:34;101974.06;;;3.00;47.36
75747;BME280;64363;52.198;21.020;2023-02-28T11:24:04;101957.50;;;2.71;47.53
75747;BME280;64363;52.198;21.020;2023-02-28T11:26:46;101965.78;;;2.52;47.91
75747;BME280;64363;52.198;21.020;2023-02-28T11:29:23;101966.00;;;2.61;48.38
75747;BME280;64363;52.198;21.020;2023-02-28T11:34:31;101956.19;;;2.89;48.47
75747;BME280;64363;52.198;21.020;2023-02-28T11:36:59;101951.44;;;3.10;48.13
75747;BME280;64363;52.198;21.020;2023-02-28T11:39:26;101938.25;;;3.10;47.61
75747;BME280;64363;52.198;21.020;2023-02-28T11:47:10;101939.19;;;3.12;47.13
75747;BME280;64363;52.198;21.020;2023-02-28T11:53:19;101928.31;;;2.97;48.11
75747;BME280;64363;52.198;21.020;2023-02-28T12:06:22;101920.13;;;3.62;47.62
75747;BME280;64363;52.198;21.020;2023-02-28T12:11:52;101921.16;;;3.30;47.11
75747;BME280;64363;52.198;21.020;2023-02-28T12:20:32;101908.72;;;3.63;45.66
75747;BME280;64363;52.198;21.020;2023-02-28T12:26:00;101897.41;;;3.69;46.76
75747;BME280;64363;52.198;21.020;2023-02-28T12:28:33;101899.75;;;3.55;45.88
75747;BME280;64363;52.198;21.020;2023-02-28T12:31:04;101900.66;;;3.57;46.05
75747;BME280;64363;52.198;21.020;2023-02-28T12:33:43;101896.44;;;3.65;45.93
75747;BME280;64363;52.198;21.020;2023-02-28T12:36:13;101900.13;;;3.73;45.70
75747;BME280;64363;52.198;21.020;2023-02-28T12:38:53;101892.91;;;3.63;46.23
75747;BME280;64363;52.198;21.020;2023-02-28T12:44:12;101880.94;;;3.81;46.14
75747;BME280;64363;52.198;21.020;2023-02-28T12:46:42;101892.69;;;3.54;46.07
75747;BME280;64363;52.198;21.020;2023-02-28T12:49:23;101883.00;;;3.52;45.52
75747;BME280;64363;52.198;21.020;2023-02-28T12:51:51;101873.97;;;3.41;46.55
75747;BME280;64363;52.198;21.020;2023-02-28T12:54:24;101864.22;;;3.38;46.44
75747;BME280;64363;52.198;21.020;2023-02-28T12:59:55;101885.66;;;3.14;46.67
75747;BME280;64363;52.198;21.020;2023-02-28T13:10:49;101871.91;;;3.69;45.25
75747;BME280;64363;52.198;21.020;2023-02-28T13:13:30;101869.41;;;3.75;46.35
75747;BME280;64363;52.198;21.020;2023-02-28T13:18:32;101857.13;;;3.77;45.42
75747;BME280;64363;52.198;21.020;2023-02-28T13:21:00;101856.50;;;3.91;45.25
75747;BME280;64363;52.198;21.020;2023-02-28T13:23:40;101855.47;;;4.29;44.93
75747;BME280;64363;52.198;21.020;2023-02-28T13:29:42;101845.94;;;5.57;40.71
75747;BME280;64363;52.198;21.020;2023-02-28T13:34:37;101838.66;;;7.33;38.11
75747;BME280;64363;52.198;21.020;2023-02-28T13:42:55;101828.25;;;9.27;33.71
75747;BME280;64363;52.198;21.020;2023-02-28T13:45:30;101816.38;;;9.99;33.00
75747;BME280;64363;52.198;21.020;2023-02-28T13:47:59;101824.66;;;9.40;33.21
75747;BME280;64363;52.198;21.020;2023-02-28T13:58:53;101810.66;;;8.45;34.70
75747;BME280;64363;52.198;21.020;2023-02-28T14:06:59;101804.25;;;7.49;37.25
75747;BME280;64363;52.198;21.020;2023-02-28T14:09:38;101804.38;;;7.86;36.43
75747;BME280;64363;52.198;21.020;2023-02-28T14:17:55;101785.31;;;9.95;33.46
75747;BME280;64363;52.198;21.020;2023-02-28T14:20:24;101786.34;;;9.73;33.20
75747;BME280;64363;52.198;21.020;2023-02-28T14:26:28;101773.81;;;9.87;33.25
75747;BME280;64363;52.198;21.020;2023-02-28T14:31:44;101780.38;;;9.15;33.36
75747;BME280;64363;52.198;21.020;2023-02-28T14:36:52;101786.66;;;8.03;35.67
75747;BME280;64363;52.198;21.020;2023-02-28T14:39:22;101779.50;;;7.57;37.22
75747;BME280;64363;52.198;21.020;2023-02-28T14:41:49;101778.63;;;7.61;37.60
75747;BME280;64363;52.198;21.020;2023-02-28T14:44:26;101774.94;;;7.27;37.60
75747;BME280;64363;52.198;21.020;2023-02-28T14:47:02;101781.66;;;6.63;39.19
75747;BME280;64363;52.198;21.020;2023-02-28T14:49:36;101781.84;;;5.84;40.53
75747;BME280;64363;52.198;21.020;2023-02-28T14:52:14;101773.34;;;5.34;43.26
75747;BME280;64363;52.198;21.020;2023-02-28T14:54:41;101780.06;;;5.08;43.13
75747;BME280;64363;52.198;21.020;2023-02-28T14:57:30;101780.00;;;5.03;44.35
75747;BME280;64363;52.198;21.020;2023-02-28T15:02:40;101772.53;;;4.73;44.75
75747;BME280;64363;52.198;21.020;2023-02-28T15:07:34;101776.81;;;4.64;45.59
75747;BME280;64363;52.198;21.020;2023-02-28T15:12:47;101766.50;;;4.23;46.48
75747;BME280;64363;52.198;21.020;2023-02-28T15:15:17;101776.88;;;4.13;47.07
75747;BME280;64363;52.198;21.020;2023-02-28T15:17:50;101768.84;;;4.07;46.46
75747;BME280;64363;52.198;21.020;2023-02-28T15:20:19;101777.41;;;3.94;46.97
75747;BME280;64363;52.198;21.020;2023-02-28T15:22:46;101783.47;;;3.90;48.11
75747;BME280;64363;52.198;21.020;2023-02-28T15:25:15;101779.75;;;3.77;48.05
75747;BME280;64363;52.198;21.020;2023-02-28T15:27:46;101773.25;;;3.58;48.60
75747;BME280;64363;52.198;21.020;2023-02-28T15:30:17;101781.03;;;3.52;49.28
75747;BME280;64363;52.198;21.020;2023-02-28T15:32:44;101787.06;;;3.47;48.81
75747;BME280;64363;52.198;21.020;2023-02-28T15:35:30;101788.56;;;3.34;49.91
75747;BME280;64363;52.198;21.020;2023-02-28T15:40:26;101777.84;;;3.25;50.51